Terminal Aerodrome Forecast
Issued by NWS

Home | Current Version | Previous Version | Text Only | Print | Product List | Glossary Off
Versions: 1 2 3 4 5 6 7 8 9 10 11 12 13 14 15 16 17 18 19 20

000
FTUS43 KABR 250407 AAB
TAFPIR
TAF AMD
KPIR 250407Z 2504/2524 05014KT P6SM VCTS SCT150CB
      TEMPO 2504/2505 27020G36KT 2SM +TSRA BKN040CB
     FM251200 VRB05KT P6SM BKN120=

USA.gov is the U.S. government's official web portal to all federal, state and local government web resources and services.